createdAt,value
2023-05-13T00:00:02.616Z,7.80
2023-05-13T00:00:26.556Z,7.79
2023-05-13T00:00:48.371Z,7.78
2023-05-13T00:01:10.141Z,7.76
2023-05-13T00:01:32.013Z,7.75
2023-05-13T00:01:54.151Z,7.73
2023-05-13T00:02:15.991Z,7.72
2023-05-13T00:02:37.727Z,7.71
2023-05-13T00:02:59.698Z,7.70
2023-05-13T00:03:21.746Z,7.69
2023-05-13T00:03:43.765Z,7.69
2023-05-13T00:04:06.961Z,7.67
2023-05-13T00:04:28.747Z,7.66
2023-05-13T00:04:50.746Z,7.65
2023-05-13T00:05:12.520Z,7.64
2023-05-13T00:05:34.305Z,7.63
2023-05-13T00:05:56.900Z,7.62
2023-05-13T00:06:18.920Z,7.62
2023-05-13T00:06:41.215Z,7.61
2023-05-13T00:07:03.019Z,7.61
2023-05-13T00:07:24.969Z,7.60
2023-05-13T00:07:46.744Z,7.59
2023-05-13T00:08:08.749Z,7.58
2023-05-13T00:08:30.529Z,7.57
2023-05-13T00:08:52.215Z,7.57
2023-05-13T00:09:13.985Z,7.57
2023-05-13T00:09:36.079Z,7.55
2023-05-13T00:09:57.805Z,7.55
2023-05-13T00:10:20.823Z,7.54
2023-05-13T00:10:42.783Z,7.54
2023-05-13T00:11:04.560Z,7.53
2023-05-13T00:11:26.635Z,7.52
2023-05-13T00:11:48.422Z,7.52
2023-05-13T00:12:10.207Z,7.51
2023-05-13T00:12:32.014Z,7.50
2023-05-13T00:12:53.776Z,7.49
2023-05-13T00:13:15.471Z,7.48
2023-05-13T00:13:37.240Z,7.47
2023-05-13T00:13:58.941Z,7.46
2023-05-13T00:14:20.710Z,7.45
2023-05-13T00:14:42.492Z,7.43
2023-05-13T00:15:04.585Z,7.43
2023-05-13T00:15:26.573Z,7.41
2023-05-13T00:15:48.354Z,7.40
2023-05-13T00:16:10.089Z,7.40
2023-05-13T00:16:32.179Z,7.38
2023-05-13T00:16:54.134Z,7.38
2023-05-13T00:17:16.013Z,7.38
2023-05-13T00:17:38.009Z,7.36
2023-05-13T00:17:59.939Z,7.36
2023-05-13T00:18:21.788Z,7.35
2023-05-13T00:18:43.526Z,7.35
2023-05-13T00:19:05.464Z,7.36
2023-05-13T00:19:27.740Z,7.37
2023-05-13T00:19:49.529Z,7.37
2023-05-13T00:20:11.922Z,7.38
2023-05-13T00:20:33.704Z,7.40
2023-05-13T00:20:56.517Z,7.40
2023-05-13T00:21:18.319Z,7.42
2023-05-13T00:21:40.025Z,7.43
2023-05-13T00:22:01.760Z,7.44
2023-05-13T00:22:23.546Z,7.45
2023-05-13T00:22:45.536Z,7.46
2023-05-13T00:23:08.053Z,7.47
2023-05-13T00:23:30.032Z,7.47
2023-05-13T00:23:51.910Z,7.47
2023-05-13T00:24:13.590Z,7.47
2023-05-13T00:24:35.490Z,7.46
2023-05-13T00:24:57.161Z,7.46
2023-05-13T00:25:18.954Z,7.45
2023-05-13T00:25:42.274Z,7.44
2023-05-13T00:26:04.254Z,7.43
2023-05-13T00:26:26.255Z,7.41
2023-05-13T00:26:48.290Z,7.40
2023-05-13T00:27:10.427Z,7.38
2023-05-13T00:27:33.140Z,7.38
2023-05-13T00:27:54.916Z,7.36
2023-05-13T00:28:17.210Z,7.35
2023-05-13T00:28:39.848Z,7.34
2023-05-13T00:29:01.539Z,7.33
2023-05-13T00:29:23.283Z,7.32
2023-05-13T00:29:45.167Z,7.31
2023-05-13T00:30:07.442Z,7.31
2023-05-13T00:30:29.163Z,7.29
2023-05-13T00:30:50.932Z,7.28
2023-05-13T00:31:12.650Z,7.28
2023-05-13T00:31:34.679Z,7.27
2023-05-13T00:31:56.810Z,7.27
2023-05-13T00:32:18.815Z,7.26
2023-05-13T00:32:40.564Z,7.26
2023-05-13T00:33:03.850Z,7.26
2023-05-13T00:33:25.678Z,7.25
2023-05-13T00:33:47.665Z,7.25
2023-05-13T00:34:09.456Z,7.24
2023-05-13T00:34:31.333Z,7.24
2023-05-13T00:34:53.123Z,7.23
2023-05-13T00:35:15.191Z,7.22
2023-05-13T00:35:36.922Z,7.22
2023-05-13T00:35:58.790Z,7.21
2023-05-13T00:36:21.050Z,7.21
2023-05-13T00:36:42.744Z,7.20
2023-05-13T00:37:05.027Z,7.19
2023-05-13T00:37:27.252Z,7.19
2023-05-13T00:37:49.028Z,7.18
2023-05-13T00:38:10.763Z,7.17
2023-05-13T00:38:33.008Z,7.17
2023-05-13T00:38:54.818Z,7.16
2023-05-13T00:39:16.931Z,7.15
2023-05-13T00:39:38.624Z,7.14
2023-05-13T00:40:00.308Z,7.13
2023-05-13T00:40:23.058Z,7.12
2023-05-13T00:40:45.037Z,7.11
2023-05-13T00:41:06.989Z,7.10
2023-05-13T00:41:28.817Z,7.09
2023-05-13T00:41:50.706Z,7.08
2023-05-13T00:42:13.837Z,7.07
2023-05-13T00:42:35.601Z,7.06
2023-05-13T00:42:57.394Z,7.06
2023-05-13T00:43:19.274Z,7.06
2023-05-13T00:43:41.159Z,7.06
2023-05-13T00:44:02.945Z,7.07
2023-05-13T00:44:24.731Z,7.07
2023-05-13T00:44:46.836Z,7.09
2023-05-13T00:45:09.011Z,7.10
2023-05-13T00:45:31.010Z,7.11
2023-05-13T00:45:52.843Z,7.12
2023-05-13T00:46:15.501Z,7.13
2023-05-13T00:46:37.279Z,7.14
2023-05-13T00:46:59.271Z,7.16
2023-05-13T00:47:21.078Z,7.17
2023-05-13T00:47:43.141Z,7.17
2023-05-13T00:48:07.717Z,7.18
2023-05-13T00:48:29.643Z,7.18
2023-05-13T00:48:51.708Z,7.19
2023-05-13T00:49:13.453Z,7.19
2023-05-13T00:49:35.221Z,7.19
2023-05-13T00:49:57.633Z,7.18
2023-05-13T00:50:19.513Z,7.17
2023-05-13T00:50:44.779Z,7.16
2023-05-13T00:51:06.975Z,7.16
2023-05-13T00:51:28.662Z,7.15
2023-05-13T00:51:52.698Z,7.14
2023-05-13T00:52:16.253Z,7.13
2023-05-13T00:52:39.036Z,7.13
2023-05-13T00:53:00.806Z,7.12
2023-05-13T00:53:22.597Z,7.11
2023-05-13T00:53:44.466Z,7.10
2023-05-13T00:54:06.157Z,7.09
2023-05-13T00:54:28.456Z,7.08
2023-05-13T00:54:50.249Z,7.08
2023-05-13T00:55:12.124Z,7.07
2023-05-13T00:55:34.115Z,7.06
2023-05-13T00:55:55.818Z,7.05
2023-05-13T00:56:22.492Z,7.05
2023-05-13T00:56:44.277Z,7.03
2023-05-13T00:57:06.264Z,7.04
2023-05-13T00:57:28.054Z,7.02
2023-05-13T00:57:50.145Z,7.02
2023-05-13T00:58:12.130Z,7.01
2023-05-13T00:58:34.245Z,7.00
2023-05-13T00:58:55.982Z,6.99
2023-05-13T00:59:17.678Z,6.97
2023-05-13T00:59:40.389Z,6.97
2023-05-13T01:00:02.414Z,6.96
2023-05-13T01:00:24.267Z,6.94
2023-05-13T01:00:46.154Z,6.94
2023-05-13T01:01:16.783Z,6.93
2023-05-13T01:01:45.261Z,6.92
2023-05-13T01:02:10.573Z,6.91
2023-05-13T01:02:35.051Z,6.91
2023-05-13T01:03:02.013Z,6.90
2023-05-13T01:03:32.801Z,6.88
2023-05-13T01:04:00.680Z,6.87
2023-05-13T01:04:41.386Z,6.86
2023-05-13T01:05:15.544Z,6.85
2023-05-13T01:05:46.330Z,6.84
2023-05-13T01:06:08.225Z,6.84
2023-05-13T01:06:34.216Z,6.83
2023-05-13T01:06:58.740Z,6.82
2023-05-13T01:07:39.034Z,6.82
2023-05-13T01:08:03.424Z,6.82
2023-05-13T01:08:30.683Z,6.84
2023-05-13T01:08:55.537Z,6.84
2023-05-13T01:09:36.136Z,6.85
2023-05-13T01:10:06.330Z,6.87
2023-05-13T01:10:31.785Z,6.89
2023-05-13T01:10:55.527Z,6.89
2023-05-13T01:11:27.940Z,6.91
2023-05-13T01:11:50.730Z,6.92
2023-05-13T01:12:14.881Z,6.92
2023-05-13T01:12:37.468Z,6.92
2023-05-13T01:13:00.402Z,6.93
2023-05-13T01:13:24.692Z,6.92
2023-05-13T01:13:47.534Z,6.91
2023-05-13T01:14:11.463Z,6.91
2023-05-13T01:14:34.176Z,6.90
2023-05-13T01:15:06.074Z,6.88
2023-05-13T01:15:27.772Z,6.88
2023-05-13T01:16:07.482Z,6.87
2023-05-13T01:16:35.966Z,6.85
2023-05-13T01:16:57.809Z,6.83
2023-05-13T01:17:21.124Z,6.81
2023-05-13T01:17:46.120Z,6.80
2023-05-13T01:18:12.520Z,6.79
2023-05-13T01:18:38.037Z,6.77
2023-05-13T01:19:01.868Z,6.76
2023-05-13T01:19:39.057Z,6.75
2023-05-13T01:20:00.969Z,6.74
2023-05-13T01:20:23.765Z,6.72
2023-05-13T01:20:45.904Z,6.72
2023-05-13T01:21:07.621Z,6.71
2023-05-13T01:21:29.503Z,6.70
2023-05-13T01:21:54.701Z,6.70
2023-05-13T01:22:17.064Z,6.68
2023-05-13T01:22:38.948Z,6.67
2023-05-13T01:23:00.797Z,6.66
2023-05-13T01:23:22.519Z,6.65
2023-05-13T01:23:44.221Z,6.65
2023-05-13T01:24:06.444Z,6.64
2023-05-13T01:24:28.444Z,6.63
2023-05-13T01:24:51.600Z,6.62
2023-05-13T01:25:13.860Z,6.61
2023-05-13T01:25:35.922Z,6.60
2023-05-13T01:25:57.667Z,6.60
2023-05-13T01:26:19.957Z,6.59
2023-05-13T01:26:41.747Z,6.58
2023-05-13T01:27:03.881Z,6.57
2023-05-13T01:27:26.256Z,6.56
2023-05-13T01:27:48.021Z,6.55
2023-05-13T01:28:10.726Z,6.54
2023-05-13T01:28:33.533Z,6.54
2023-05-13T01:28:56.109Z,6.53
2023-05-13T01:29:17.915Z,6.52
2023-05-13T01:29:41.134Z,6.51
2023-05-13T01:30:03.121Z,6.51
2023-05-13T01:30:26.855Z,6.49
2023-05-13T01:30:48.534Z,6.48
2023-05-13T01:31:11.176Z,6.48
2023-05-13T01:31:33.077Z,6.47
2023-05-13T01:31:55.632Z,6.47
2023-05-13T01:32:17.509Z,6.46
2023-05-13T01:32:39.476Z,6.47
2023-05-13T01:33:01.371Z,6.47
2023-05-13T01:33:23.483Z,6.48
2023-05-13T01:33:45.670Z,6.49
2023-05-13T01:34:07.500Z,6.51
2023-05-13T01:34:29.180Z,6.51
2023-05-13T01:34:52.150Z,6.53
2023-05-13T01:35:13.847Z,6.54
2023-05-13T01:35:38.600Z,6.56
2023-05-13T01:36:00.368Z,6.57
2023-05-13T01:36:22.460Z,6.58
2023-05-13T01:36:44.253Z,6.60
2023-05-13T01:37:06.666Z,6.60
2023-05-13T01:37:29.040Z,6.61
2023-05-13T01:37:51.550Z,6.62
2023-05-13T01:38:14.039Z,6.63
2023-05-13T01:38:41.274Z,6.62
2023-05-13T01:39:03.346Z,6.62
2023-05-13T01:39:25.505Z,6.62
2023-05-13T01:39:48.749Z,6.61
2023-05-13T01:40:28.117Z,6.59
2023-05-13T01:40:53.074Z,6.57
2023-05-13T01:41:14.815Z,6.56
2023-05-13T01:41:37.061Z,6.54
2023-05-13T01:41:58.838Z,6.53
2023-05-13T01:42:20.624Z,6.52
2023-05-13T01:42:42.819Z,6.51
2023-05-13T01:43:04.597Z,6.50
2023-05-13T01:43:26.401Z,6.49
2023-05-13T01:43:48.369Z,6.47
2023-05-13T01:44:10.300Z,6.46
2023-05-13T01:44:32.050Z,6.45
2023-05-13T01:44:54.247Z,6.44
2023-05-13T01:45:16.242Z,6.43
2023-05-13T01:45:37.953Z,6.42
2023-05-13T01:46:01.054Z,6.40
2023-05-13T01:46:22.885Z,6.39
2023-05-13T01:46:45.053Z,6.39
2023-05-13T01:47:07.279Z,6.37
2023-05-13T01:47:29.979Z,6.36
2023-05-13T01:47:51.912Z,6.36
2023-05-13T01:48:13.755Z,6.35
2023-05-13T01:48:38.527Z,6.34
2023-05-13T01:49:00.281Z,6.33
2023-05-13T01:49:22.098Z,6.32
2023-05-13T01:49:43.903Z,6.32
2023-05-13T01:50:06.232Z,6.31
2023-05-13T01:50:29.341Z,6.31
2023-05-13T01:50:52.732Z,6.29
2023-05-13T01:51:14.604Z,6.29
2023-05-13T01:51:37.957Z,6.28
2023-05-13T01:52:01.032Z,6.28
2023-05-13T01:52:23.379Z,6.27
2023-05-13T01:52:45.122Z,6.26
2023-05-13T01:53:07.103Z,6.26
2023-05-13T01:53:29.403Z,6.26
2023-05-13T01:53:51.176Z,6.25
2023-05-13T01:54:13.477Z,6.25
2023-05-13T01:54:38.213Z,6.25
2023-05-13T01:55:03.490Z,6.26
2023-05-13T01:55:25.478Z,6.27
2023-05-13T01:55:47.365Z,6.28
2023-05-13T01:56:09.355Z,6.30
2023-05-13T01:56:31.140Z,6.32
2023-05-13T01:56:53.230Z,6.33
2023-05-13T01:57:14.948Z,6.35
2023-05-13T01:57:36.798Z,6.37
2023-05-13T01:57:58.583Z,6.39
2023-05-13T01:58:20.773Z,6.40
2023-05-13T01:58:42.672Z,6.41
2023-05-13T01:59:04.757Z,6.42
2023-05-13T01:59:26.544Z,6.43
2023-05-13T01:59:48.378Z,6.43
2023-05-13T02:00:11.030Z,6.43
2023-05-13T02:00:36.290Z,6.43
2023-05-13T02:00:58.307Z,6.43
2023-05-13T02:01:21.862Z,6.43
2023-05-13T02:01:45.851Z,6.43
2023-05-13T02:02:07.879Z,6.43
2023-05-13T02:02:29.942Z,6.41
2023-05-13T02:02:51.765Z,6.40
2023-05-13T02:03:13.667Z,6.40
2023-05-13T02:03:35.638Z,6.40
2023-05-13T02:03:57.745Z,6.38
2023-05-13T02:04:19.557Z,6.38
2023-05-13T02:04:41.763Z,6.37
2023-05-13T02:05:03.941Z,6.37
2023-05-13T02:05:27.033Z,6.37
2023-05-13T02:05:49.348Z,6.36
2023-05-13T02:06:11.140Z,6.35
2023-05-13T02:06:34.769Z,6.34
2023-05-13T02:06:56.856Z,6.32
2023-05-13T02:07:18.738Z,6.33
2023-05-13T02:07:40.831Z,6.32
2023-05-13T02:08:02.869Z,6.31
2023-05-13T02:08:27.886Z,6.30
2023-05-13T02:08:49.630Z,6.29
2023-05-13T02:09:11.551Z,6.29
2023-05-13T02:09:34.875Z,6.28
2023-05-13T02:09:59.992Z,6.27
2023-05-13T02:10:22.108Z,6.26
2023-05-13T02:10:44.149Z,6.25
2023-05-13T02:11:06.199Z,6.24
2023-05-13T02:11:27.985Z,6.23
2023-05-13T02:11:52.037Z,6.22
2023-05-13T02:12:13.803Z,6.22
2023-05-13T02:12:35.496Z,6.22
2023-05-13T02:12:58.910Z,6.21
2023-05-13T02:13:20.624Z,6.20
2023-05-13T02:13:42.332Z,6.19
2023-05-13T02:14:04.156Z,6.18
2023-05-13T02:14:26.362Z,6.18
2023-05-13T02:14:48.058Z,6.18
2023-05-13T02:15:10.331Z,6.16
2023-05-13T02:15:32.110Z,6.16
2023-05-13T02:15:54.103Z,6.15
2023-05-13T02:16:18.659Z,6.15
2023-05-13T02:16:40.757Z,6.15
2023-05-13T02:17:03.372Z,6.15
2023-05-13T02:17:25.297Z,6.16
2023-05-13T02:17:47.651Z,6.17
2023-05-13T02:18:09.902Z,6.18
2023-05-13T02:18:31.845Z,6.20
2023-05-13T02:18:54.506Z,6.21
2023-05-13T02:19:22.026Z,6.23
2023-05-13T02:19:43.905Z,6.24
2023-05-13T02:20:06.317Z,6.25
2023-05-13T02:20:28.471Z,6.27
2023-05-13T02:20:50.804Z,6.28
2023-05-13T02:21:12.699Z,6.29
2023-05-13T02:21:34.447Z,6.30
2023-05-13T02:21:56.356Z,6.31
2023-05-13T02:22:18.462Z,6.31
2023-05-13T02:22:40.545Z,6.31
2023-05-13T02:23:02.258Z,6.31
2023-05-13T02:23:24.151Z,6.30
2023-05-13T02:23:45.898Z,6.29
2023-05-13T02:24:07.984Z,6.29
2023-05-13T02:24:30.902Z,6.29
2023-05-13T02:24:53.553Z,6.28
2023-05-13T02:25:15.488Z,6.27
2023-05-13T02:25:37.295Z,6.27
2023-05-13T02:25:59.165Z,6.27
2023-05-13T02:26:22.269Z,6.26
2023-05-13T02:26:45.217Z,6.26
2023-05-13T02:27:07.687Z,6.25
2023-05-13T02:27:29.672Z,6.25
2023-05-13T02:27:51.457Z,6.24
2023-05-13T02:28:13.250Z,6.24
2023-05-13T02:28:36.867Z,6.24
2023-05-13T02:28:58.876Z,6.24
2023-05-13T02:29:20.852Z,6.24
2023-05-13T02:29:42.636Z,6.23
2023-05-13T02:30:05.655Z,6.24
2023-05-13T02:30:27.616Z,6.23
2023-05-13T02:30:49.415Z,6.23
2023-05-13T02:31:11.301Z,6.23
2023-05-13T02:31:33.195Z,6.23
2023-05-13T02:31:55.852Z,6.23
2023-05-13T02:32:18.142Z,6.23
2023-05-13T02:32:42.947Z,6.23
2023-05-13T02:33:06.718Z,6.22
2023-05-13T02:33:28.672Z,6.22
2023-05-13T02:33:50.540Z,6.22
2023-05-13T02:34:12.338Z,6.21
2023-05-13T02:34:34.220Z,6.21
2023-05-13T02:34:55.907Z,6.21
2023-05-13T02:35:17.891Z,6.21
2023-05-13T02:35:39.610Z,6.21
2023-05-13T02:36:01.326Z,6.20
2023-05-13T02:36:23.137Z,6.20
2023-05-13T02:36:45.044Z,6.20
2023-05-13T02:37:06.807Z,6.20
2023-05-13T02:37:29.107Z,6.20
2023-05-13T02:37:54.400Z,6.20
2023-05-13T02:38:16.150Z,6.20
2023-05-13T02:38:38.142Z,6.20
2023-05-13T02:39:00.130Z,6.20
2023-05-13T02:39:21.909Z,6.20
2023-05-13T02:39:43.742Z,6.21
2023-05-13T02:40:06.304Z,6.22
2023-05-13T02:40:28.094Z,6.23
2023-05-13T02:40:50.173Z,6.24
2023-05-13T02:41:12.893Z,6.27
2023-05-13T02:41:34.963Z,6.29
2023-05-13T02:41:57.679Z,6.32
2023-05-13T02:42:19.974Z,6.35
2023-05-13T02:42:43.505Z,6.38
2023-05-13T02:43:05.693Z,6.40
2023-05-13T02:43:41.377Z,6.45
2023-05-13T02:44:03.270Z,6.47
2023-05-13T02:44:25.460Z,6.49
2023-05-13T02:44:48.797Z,6.51
2023-05-13T02:45:11.801Z,6.53
2023-05-13T02:45:33.884Z,6.54
2023-05-13T02:45:56.020Z,6.55
2023-05-13T02:46:17.853Z,6.55
2023-05-13T02:46:40.056Z,6.56
2023-05-13T02:47:01.841Z,6.57
2023-05-13T02:47:23.719Z,6.57
2023-05-13T02:47:46.059Z,6.58
2023-05-13T02:48:08.834Z,6.58
2023-05-13T02:48:30.823Z,6.59
2023-05-13T02:48:52.551Z,6.59
2023-05-13T02:49:14.402Z,6.60
2023-05-13T02:49:36.276Z,6.61
2023-05-13T02:49:58.369Z,6.61
2023-05-13T02:50:20.387Z,6.62
2023-05-13T02:50:42.667Z,6.62
2023-05-13T02:51:05.174Z,6.63
2023-05-13T02:51:26.934Z,6.64
2023-05-13T02:51:48.743Z,6.64
2023-05-13T02:52:10.918Z,6.65
2023-05-13T02:52:34.335Z,6.66
2023-05-13T02:52:56.120Z,6.67
2023-05-13T02:53:18.633Z,6.68
2023-05-13T02:53:45.531Z,6.68
2023-05-13T02:54:07.416Z,6.69
2023-05-13T02:54:29.189Z,6.69
2023-05-13T02:54:50.988Z,6.71
2023-05-13T02:55:12.904Z,6.71
2023-05-13T02:55:34.855Z,6.72
2023-05-13T02:55:56.638Z,6.72
2023-05-13T02:56:21.002Z,6.73
2023-05-13T02:56:42.761Z,6.74
2023-05-13T02:57:05.068Z,6.74
2023-05-13T02:57:26.952Z,6.75
2023-05-13T02:57:49.057Z,6.76
2023-05-13T02:58:10.761Z,6.77
2023-05-13T02:58:32.604Z,6.78
2023-05-13T02:58:54.390Z,6.79
2023-05-13T02:59:16.384Z,6.79
2023-05-13T02:59:38.162Z,6.81
2023-05-13T02:59:59.888Z,6.81
2023-05-13T03:00:21.834Z,6.83
2023-05-13T03:00:44.032Z,6.84
2023-05-13T03:01:06.152Z,6.86
2023-05-13T03:01:28.293Z,6.88
2023-05-13T03:01:50.275Z,6.91
2023-05-13T03:02:12.304Z,6.94
2023-05-13T03:02:35.226Z,6.96
2023-05-13T03:02:58.056Z,6.99
2023-05-13T03:03:20.356Z,7.02
2023-05-13T03:03:42.243Z,7.05
2023-05-13T03:04:04.504Z,7.08
2023-05-13T03:04:26.391Z,7.11
2023-05-13T03:04:48.158Z,7.13
2023-05-13T03:05:09.829Z,7.15
2023-05-13T03:05:31.578Z,7.17
2023-05-13T03:05:53.295Z,7.19
2023-05-13T03:06:15.061Z,7.20
2023-05-13T03:06:36.766Z,7.22
2023-05-13T03:06:58.765Z,7.23
2023-05-13T03:07:21.058Z,7.24
2023-05-13T03:07:43.455Z,7.24
2023-05-13T03:08:05.225Z,7.25
2023-05-13T03:08:27.025Z,7.26
2023-05-13T03:08:48.875Z,7.26
2023-05-13T03:09:11.109Z,7.27
2023-05-13T03:09:35.186Z,7.27
2023-05-13T03:09:57.026Z,7.27
2023-05-13T03:10:19.166Z,7.28
2023-05-13T03:10:41.207Z,7.30
2023-05-13T03:11:03.811Z,7.30
2023-05-13T03:11:26.927Z,7.32
2023-05-13T03:11:48.871Z,7.33
2023-05-13T03:12:10.652Z,7.34
2023-05-13T03:12:32.480Z,7.35
2023-05-13T03:12:54.269Z,7.36
2023-05-13T03:13:16.050Z,7.37
2023-05-13T03:13:37.748Z,7.39
2023-05-13T03:13:59.520Z,7.40
2023-05-13T03:14:21.282Z,7.41
2023-05-13T03:14:44.547Z,7.43
2023-05-13T03:15:06.950Z,7.44
2023-05-13T03:15:29.118Z,7.46
2023-05-13T03:15:51.256Z,7.47
2023-05-13T03:16:13.391Z,7.48
2023-05-13T03:16:35.547Z,7.50
2023-05-13T03:16:57.578Z,7.51
2023-05-13T03:17:19.399Z,7.53
2023-05-13T03:17:42.129Z,7.54
2023-05-13T03:18:03.962Z,7.56
2023-05-13T03:18:26.202Z,7.57
2023-05-13T03:18:48.682Z,7.58
2023-05-13T03:19:11.200Z,7.59
2023-05-13T03:19:33.962Z,7.61
2023-05-13T03:19:55.951Z,7.62
2023-05-13T03:20:17.828Z,7.64
2023-05-13T03:20:39.615Z,7.65
2023-05-13T03:21:02.122Z,7.67
2023-05-13T03:21:24.016Z,7.70
2023-05-13T03:21:45.997Z,7.71
2023-05-13T03:22:09.321Z,7.72
2023-05-13T03:22:31.093Z,7.73
2023-05-13T03:22:52.778Z,7.74
2023-05-13T03:23:14.891Z,7.74
2023-05-13T03:23:37.804Z,7.76
2023-05-13T03:23:59.671Z,7.77
2023-05-13T03:24:21.451Z,7.78
2023-05-13T03:24:44.568Z,7.79
2023-05-13T03:25:07.390Z,7.81
2023-05-13T03:25:47.514Z,7.82
2023-05-13T03:26:09.374Z,7.84
2023-05-13T03:26:31.439Z,7.86
2023-05-13T03:26:53.388Z,7.87
2023-05-13T03:27:15.642Z,7.89
2023-05-13T03:27:38.002Z,7.90
2023-05-13T03:28:00.314Z,7.91
2023-05-13T03:28:24.656Z,7.93
2023-05-13T03:28:46.648Z,7.95
2023-05-13T03:29:09.044Z,7.97
2023-05-13T03:29:31.136Z,7.98
2023-05-13T03:29:53.028Z,8.00
2023-05-13T03:30:14.805Z,8.02
2023-05-13T03:30:44.363Z,8.04
2023-05-13T03:31:10.153Z,8.06
2023-05-13T03:31:33.280Z,8.08
2023-05-13T03:31:56.673Z,8.10
2023-05-13T03:32:18.622Z,8.11
2023-05-13T03:32:40.718Z,8.13
2023-05-13T03:33:03.340Z,8.14
2023-05-13T03:33:25.854Z,8.16
2023-05-13T03:33:48.047Z,8.18
2023-05-13T03:34:10.033Z,8.19
2023-05-13T03:34:32.435Z,8.20
2023-05-13T03:34:54.366Z,8.22
2023-05-13T03:35:16.314Z,8.23
2023-05-13T03:35:38.835Z,8.25
2023-05-13T03:36:00.858Z,8.28
2023-05-13T03:36:24.833Z,8.29
2023-05-13T03:36:46.504Z,8.31
2023-05-13T03:37:10.039Z,8.33
2023-05-13T03:37:31.832Z,8.36
2023-05-13T03:37:53.609Z,8.38
2023-05-13T03:38:16.128Z,8.42
2023-05-13T03:38:40.050Z,8.46
2023-05-13T03:39:03.259Z,8.50
2023-05-13T03:39:26.575Z,8.53
2023-05-13T03:39:48.421Z,8.57
2023-05-13T03:40:10.672Z,8.60
2023-05-13T03:40:32.851Z,8.64
2023-05-13T03:40:54.648Z,8.68
2023-05-13T03:41:17.680Z,8.71
2023-05-13T03:41:40.100Z,8.74
2023-05-13T03:42:03.057Z,8.76
2023-05-13T03:42:25.046Z,8.79
2023-05-13T03:42:47.033Z,8.80
2023-05-13T03:43:08.819Z,8.81
2023-05-13T03:43:31.014Z,8.83
2023-05-13T03:43:55.401Z,8.85
2023-05-13T03:44:17.140Z,8.87
2023-05-13T03:44:38.924Z,8.88
2023-05-13T03:45:00.808Z,8.90
2023-05-13T03:45:22.590Z,8.91
2023-05-13T03:45:48.686Z,8.92
2023-05-13T03:46:13.021Z,8.94
2023-05-13T03:46:34.906Z,8.95
2023-05-13T03:46:56.848Z,8.97
2023-05-13T03:47:20.029Z,9.00
2023-05-13T03:47:41.815Z,9.02
2023-05-13T03:48:07.199Z,9.03
2023-05-13T03:48:29.153Z,9.05
2023-05-13T03:48:51.743Z,9.07
2023-05-13T03:49:13.528Z,9.09
2023-05-13T03:49:36.032Z,9.11
2023-05-13T03:49:57.815Z,9.12
2023-05-13T03:50:19.697Z,9.14
2023-05-13T03:50:41.794Z,9.16
2023-05-13T03:51:03.566Z,9.18
2023-05-13T03:51:25.359Z,9.20
2023-05-13T03:51:47.122Z,9.22
2023-05-13T03:52:09.279Z,9.24
2023-05-13T03:52:31.016Z,9.26
2023-05-13T03:52:53.292Z,9.29
2023-05-13T03:53:16.134Z,9.31
2023-05-13T03:53:38.316Z,9.32
2023-05-13T03:54:00.511Z,9.34
2023-05-13T03:54:22.422Z,9.36
2023-05-13T03:54:44.288Z,9.38
2023-05-13T03:55:06.804Z,9.40
2023-05-13T03:55:29.085Z,9.42
2023-05-13T03:55:50.966Z,9.44
2023-05-13T03:56:12.753Z,9.46
2023-05-13T03:56:35.258Z,9.48
2023-05-13T03:56:56.970Z,9.49
2023-05-13T03:57:18.872Z,9.51
2023-05-13T03:57:42.350Z,9.52
2023-05-13T03:58:14.459Z,9.54
2023-05-13T03:58:36.973Z,9.56
2023-05-13T03:58:58.849Z,9.58
2023-05-13T03:59:20.743Z,9.59
2023-05-13T03:59:42.632Z,9.61
2023-05-13T04:00:04.624Z,9.63
2023-05-13T04:00:36.366Z,9.65
2023-05-13T04:00:58.111Z,9.67
2023-05-13T04:01:20.020Z,9.69
2023-05-13T04:01:42.726Z,9.70
2023-05-13T04:02:04.932Z,9.71
2023-05-13T04:02:26.998Z,9.73
2023-05-13T04:02:49.147Z,9.75
2023-05-13T04:03:11.201Z,9.76
2023-05-13T04:03:33.252Z,9.78
2023-05-13T04:03:55.037Z,9.79
2023-05-13T04:04:16.832Z,9.82
2023-05-13T04:04:38.620Z,9.82
2023-05-13T04:05:00.436Z,9.84
2023-05-13T04:05:22.568Z,9.87
2023-05-13T04:05:45.904Z,9.88
2023-05-13T04:06:07.689Z,9.89
2023-05-13T04:06:29.497Z,9.90
2023-05-13T04:06:51.265Z,9.91
2023-05-13T04:07:13.044Z,9.93
2023-05-13T04:07:34.741Z,9.95
2023-05-13T04:07:56.813Z,9.96
2023-05-13T04:08:19.442Z,9.98
2023-05-13T04:08:41.330Z,10.00
2023-05-13T04:09:04.823Z,10.03
2023-05-13T04:09:26.528Z,10.06
2023-05-13T04:09:48.239Z,10.09
2023-05-13T04:10:13.033Z,10.11
2023-05-13T04:10:36.464Z,10.15
2023-05-13T04:10:58.254Z,10.19
2023-05-13T04:11:21.976Z,10.21
2023-05-13T04:11:43.873Z,10.25
2023-05-13T04:12:05.956Z,10.28
2023-05-13T04:12:27.740Z,10.32
2023-05-13T04:12:49.468Z,10.34
2023-05-13T04:13:11.322Z,10.37
2023-05-13T04:13:34.524Z,10.38
2023-05-13T04:13:56.333Z,10.41
2023-05-13T04:14:18.247Z,10.42
2023-05-13T04:14:40.306Z,10.44
2023-05-13T04:15:02.088Z,10.46
2023-05-13T04:15:24.743Z,10.47
2023-05-13T04:15:46.466Z,10.49
2023-05-13T04:16:08.242Z,10.51
2023-05-13T04:16:30.114Z,10.52
2023-05-13T04:16:51.980Z,10.54
2023-05-13T04:17:13.820Z,10.55
2023-05-13T04:17:35.795Z,10.56
2023-05-13T04:17:58.213Z,10.58
2023-05-13T04:18:20.382Z,10.60
2023-05-13T04:18:42.230Z,10.61
2023-05-13T04:19:04.334Z,10.64
2023-05-13T04:19:26.232Z,10.66
2023-05-13T04:19:48.494Z,10.67
2023-05-13T04:20:10.551Z,10.69
2023-05-13T04:20:32.280Z,10.71
2023-05-13T04:20:53.976Z,10.73
2023-05-13T04:21:16.604Z,10.75
2023-05-13T04:21:38.297Z,10.76
2023-05-13T04:22:00.205Z,10.78
2023-05-13T04:22:22.067Z,10.80
2023-05-13T04:22:44.043Z,10.81
2023-05-13T04:23:05.957Z,10.83
2023-05-13T04:23:27.820Z,10.84
2023-05-13T04:23:51.795Z,10.86
2023-05-13T04:24:13.496Z,10.88
2023-05-13T04:24:35.426Z,10.90
2023-05-13T04:24:57.415Z,10.90
2023-05-13T04:25:19.195Z,10.91
2023-05-13T04:25:40.988Z,10.93
2023-05-13T04:26:02.695Z,10.95
2023-05-13T04:26:25.276Z,10.97
2023-05-13T04:26:47.160Z,10.98
2023-05-13T04:27:08.879Z,11.00
2023-05-13T04:27:30.590Z,11.02
2023-05-13T04:28:05.194Z,11.04
2023-05-13T04:28:30.038Z,11.07
2023-05-13T04:28:52.339Z,11.09
2023-05-13T04:29:14.970Z,11.10
2023-05-13T04:29:37.132Z,11.12
2023-05-13T04:29:59.343Z,11.14
2023-05-13T04:30:22.434Z,11.16
2023-05-13T04:30:44.430Z,11.17
2023-05-13T04:31:06.398Z,11.19
2023-05-13T04:31:30.459Z,11.21
2023-05-13T04:31:52.275Z,11.23
2023-05-13T04:32:18.013Z,11.24
2023-05-13T04:32:40.061Z,11.26
2023-05-13T04:33:02.243Z,11.27
2023-05-13T04:33:24.231Z,11.29
2023-05-13T04:33:45.916Z,11.30
2023-05-13T04:34:07.972Z,11.32
2023-05-13T04:34:30.043Z,11.33
2023-05-13T04:34:52.471Z,11.35
2023-05-13T04:35:14.415Z,11.36
2023-05-13T04:35:38.369Z,11.38
2023-05-13T04:36:00.478Z,11.39
2023-05-13T04:36:22.446Z,11.42
2023-05-13T04:36:46.681Z,11.43
2023-05-13T04:37:09.385Z,11.45
2023-05-13T04:37:31.279Z,11.46
2023-05-13T04:37:56.361Z,11.48
2023-05-13T04:38:18.220Z,11.51
2023-05-13T04:38:40.520Z,11.52
2023-05-13T04:39:02.501Z,11.53
2023-05-13T04:39:24.294Z,11.55
2023-05-13T04:39:46.900Z,11.57
2023-05-13T04:40:09.321Z,11.59
2023-05-13T04:40:31.082Z,11.61
2023-05-13T04:40:56.642Z,11.64
2023-05-13T04:41:26.001Z,11.65
2023-05-13T04:41:47.780Z,11.67
2023-05-13T04:42:09.565Z,11.68
2023-05-13T04:42:31.451Z,11.70
2023-05-13T04:42:55.195Z,11.72
2023-05-13T04:43:27.323Z,11.73
2023-05-13T04:43:51.822Z,11.75
2023-05-13T04:44:13.825Z,11.77
2023-05-13T04:44:35.630Z,11.78
2023-05-13T04:44:57.702Z,11.81
2023-05-13T04:45:19.485Z,11.82
2023-05-13T04:45:41.474Z,11.85
2023-05-13T04:46:05.756Z,11.86
2023-05-13T04:46:27.569Z,11.88
2023-05-13T04:46:49.396Z,11.89
2023-05-13T04:47:12.095Z,11.90
2023-05-13T04:47:38.370Z,11.92
2023-05-13T04:48:01.030Z,11.94
2023-05-13T04:48:22.862Z,11.95
2023-05-13T04:48:48.986Z,11.97
2023-05-13T04:49:11.292Z,11.98
2023-05-13T04:49:33.538Z,12.00
2023-05-13T04:49:56.238Z,12.01
2023-05-13T04:50:18.710Z,12.03
2023-05-13T04:50:44.832Z,12.04
2023-05-13T04:51:06.800Z,12.05
2023-05-13T04:51:29.512Z,12.05
2023-05-13T04:51:51.920Z,12.07
2023-05-13T04:52:14.621Z,12.08
2023-05-13T04:52:37.541Z,12.10
2023-05-13T04:52:59.937Z,12.10
2023-05-13T04:53:21.675Z,12.11
2023-05-13T04:53:43.500Z,12.12
2023-05-13T04:54:05.491Z,12.13
2023-05-13T04:54:28.496Z,12.15
2023-05-13T04:54:50.280Z,12.16
2023-05-13T04:55:12.067Z,12.17
2023-05-13T04:55:35.211Z,12.18
2023-05-13T04:56:01.077Z,12.18
2023-05-13T04:56:24.576Z,12.20
2023-05-13T04:56:46.361Z,12.20
2023-05-13T04:57:08.147Z,12.21
2023-05-13T04:57:30.867Z,12.22
2023-05-13T04:57:53.159Z,12.22
2023-05-13T04:58:14.933Z,12.24
2023-05-13T04:58:36.716Z,12.25
2023-05-13T04:58:58.609Z,12.27
2023-05-13T04:59:20.390Z,12.28
2023-05-13T04:59:42.172Z,12.29
2023-05-13T05:00:05.495Z,12.31